createdAt,value
2022-08-18T00:09:59.740Z,100.00
2022-08-18T00:20:04.081Z,100.00
2022-08-18T00:30:10.625Z,100.00
2022-08-18T00:40:17.918Z,100.00
2022-08-18T00:50:28.963Z,100.00
2022-08-18T01:00:31.758Z,100.00
2022-08-18T01:10:34.749Z,100.00
2022-08-18T01:21:04.214Z,100.00
2022-08-18T01:31:09.438Z,100.00
2022-08-18T01:41:27.027Z,100.00
2022-08-18T01:51:40.097Z,100.00
2022-08-18T02:01:53.105Z,100.00
2022-08-18T02:11:56.610Z,100.00
2022-08-18T02:21:59.023Z,100.00
2022-08-18T02:32:02.183Z,100.00
2022-08-18T02:42:08.254Z,100.00
2022-08-18T02:52:11.050Z,100.00
2022-08-18T03:02:14.099Z,100.00
2022-08-18T03:12:16.541Z,100.00
2022-08-18T03:22:28.513Z,100.00
2022-08-18T03:32:32.246Z,100.00
2022-08-18T03:42:34.839Z,100.00
2022-08-18T03:52:41.824Z,100.00
2022-08-18T04:02:44.683Z,100.00
2022-08-18T04:12:47.407Z,100.00
2022-08-18T04:22:50.128Z,100.00
2022-08-18T04:32:53.179Z,100.00
2022-08-18T04:42:56.570Z,100.00
2022-08-18T04:53:17.396Z,100.00
2022-08-18T05:03:20.964Z,100.00
2022-08-18T05:13:26.313Z,100.00
2022-08-18T05:23:30.148Z,100.00
2022-08-18T05:33:32.759Z,100.00
2022-08-18T05:43:45.963Z,100.00
2022-08-18T05:54:16.865Z,100.00
2022-08-18T06:04:38.380Z,100.00
2022-08-18T06:14:42.858Z,100.00
2022-08-18T06:25:33.198Z,100.00
2022-08-18T06:35:46.377Z,100.00
2022-08-18T06:56:37.857Z,100.00
2022-08-18T07:06:41.989Z,100.00
2022-08-18T07:17:17.748Z,100.00
2022-08-18T07:27:42.668Z,100.00
2022-08-18T07:38:41.411Z,100.00
2022-08-18T07:49:06.768Z,100.00
2022-08-18T08:10:36.991Z,100.00
2022-08-18T08:20:49.593Z,100.00
2022-08-18T08:41:30.077Z,100.00
2022-08-18T08:51:45.508Z,100.00
2022-08-18T09:02:32.008Z,100.00
2022-08-18T09:13:29.244Z,100.00
2022-08-18T09:23:43.177Z,100.00
2022-08-18T09:34:49.920Z,100.00
2022-08-18T09:44:57.572Z,93.90
2022-08-18T10:06:07.142Z,87.41
2022-08-18T10:16:31.170Z,79.57
2022-08-18T10:27:14.715Z,82.50
2022-08-18T10:37:45.273Z,84.56
2022-08-18T10:48:26.937Z,79.11
2022-08-18T10:59:28.885Z,80.08
2022-08-18T11:09:34.560Z,82.63
2022-08-18T11:19:46.334Z,80.08
2022-08-18T11:30:05.893Z,76.92
2022-08-18T11:40:22.551Z,79.40
2022-08-18T12:01:54.055Z,74.77
2022-08-18T12:12:01.651Z,71.42
2022-08-18T12:22:18.950Z,73.00
2022-08-18T12:32:49.596Z,74.74
2022-08-18T12:43:05.740Z,70.54
2022-08-18T13:04:21.536Z,71.36
2022-08-18T13:14:30.414Z,73.65
2022-08-18T13:24:38.540Z,70.59
2022-08-18T13:34:49.909Z,68.73
2022-08-18T13:44:57.579Z,66.27
2022-08-18T13:55:30.991Z,69.45
2022-08-18T14:05:36.894Z,64.69
2022-08-18T14:15:58.378Z,64.45
2022-08-18T14:26:20.718Z,63.40
2022-08-18T14:36:30.218Z,66.00
2022-08-18T14:46:33.895Z,67.84
2022-08-18T14:56:39.103Z,69.25
2022-08-18T15:06:56.746Z,66.90
2022-08-18T15:17:13.290Z,64.96
2022-08-18T15:27:19.678Z,73.29
2022-08-18T15:37:43.587Z,71.55
2022-08-18T15:47:48.518Z,77.45
2022-08-18T15:57:53.312Z,78.98
2022-08-18T16:08:01.718Z,79.92
2022-08-18T16:18:07.449Z,83.45
2022-08-18T16:28:15.122Z,86.11
2022-08-18T16:38:20.504Z,88.34
2022-08-18T16:48:28.318Z,87.72
2022-08-18T16:58:50.939Z,88.58
2022-08-18T17:08:55.253Z,88.84
2022-08-18T17:19:00.549Z,89.38
2022-08-18T17:29:16.187Z,92.37
2022-08-18T17:39:24.875Z,95.34
2022-08-18T17:50:00.155Z,97.28
2022-08-18T18:00:19.159Z,99.03
2022-08-18T18:10:30.418Z,99.86
2022-08-18T18:20:42.747Z,100.00
2022-08-18T18:30:47.603Z,100.00
2022-08-18T18:41:13.755Z,100.00
2022-08-18T18:51:33.854Z,100.00
2022-08-18T19:02:01.249Z,100.00
2022-08-18T19:12:26.294Z,100.00
2022-08-18T19:22:45.057Z,100.00
2022-08-18T19:32:58.505Z,100.00
2022-08-18T19:43:11.688Z,100.00
2022-08-18T19:53:45.833Z,100.00
2022-08-18T20:04:39.183Z,100.00
2022-08-18T20:14:44.248Z,100.00
2022-08-18T20:25:05.975Z,100.00
2022-08-18T20:35:25.167Z,100.00
2022-08-18T20:45:35.219Z,100.00
2022-08-18T20:56:02.297Z,100.00
2022-08-18T21:06:37.912Z,100.00
2022-08-18T21:16:45.563Z,100.00
2022-08-18T21:26:49.025Z,100.00
2022-08-18T21:36:54.234Z,100.00
2022-08-18T21:47:07.105Z,100.00
2022-08-18T21:57:28.708Z,100.00
2022-08-18T22:07:35.885Z,100.00
2022-08-18T22:17:51.062Z,100.00
2022-08-18T22:27:57.559Z,100.00
2022-08-18T22:38:01.729Z,100.00
2022-08-18T22:48:04.944Z,100.00
2022-08-18T22:58:08.266Z,100.00
2022-08-18T23:08:13.200Z,100.00
2022-08-18T23:18:19.992Z,100.00
2022-08-18T23:28:24.980Z,100.00
2022-08-18T23:38:31.758Z,100.00
2022-08-18T23:48:35.147Z,100.00
2022-08-18T23:58:37.964Z,100.00
